Latest Weather Observations for Cape Naturaliste

IDW60801

Issued at 9:33 am WST Wednesday 16 January 2019 (issued every 10 minutes, with the page automatically refreshed every 10 minutes)

About weather observations | Map of weather stations | Latest weather observations for WA | Other Formats
Station Details ID: 009519 Name: CAPE NATURALISTE Lat: -33.54 Lon: 115.02 Height: 109.0 m
Data from the previous 72 hours. | See also: Recent months at Cape Naturaliste
Date/Time
WST
Temp
°C
App
Temp
°C
Dew
Point
°C
Rel
Hum
%
Delta-T
°C
Wind Press
QNH
hPa
Press
MSL
hPa
Rain since
9am
mm
Dir  Spd
km/h
Gust
km/h
Spd
kts
Gust
kts
16/09:30am 20.3 16.7 10.7 54 5.3 SW 20 30 11 16 1014.1 1013.7 0.0
16/09:00am 20.2 17.2 9.2 49 5.8 SW 15 20 8 11 1014.2 1013.8 0.0
16/08:30am 20.2 18.0 10.9 55 5.1 SSW 13 32 7 17 1014.2 1013.8 0.0
16/08:00am 19.9 18.0 10.6 55 5.1 ESE 11 19 6 10 1014.0 1013.6 0.0
16/07:30am 18.5 16.4 11.1 62 4.0 SE 13 20 7 11 1014.2 1013.8 0.0
16/07:00am 17.1 14.6 10.9 67 3.3 SE 15 19 8 10 1013.9 1013.5 0.0
16/06:30am 15.6 13.1 11.2 75 2.4 SSE 15 20 8 11 1013.8 1013.4 0.0
16/06:00am 13.3 10.1 10.1 81 1.7 SSE 17 20 9 11 1013.6 1013.2 0.0
16/05:30am 13.0 9.4 9.8 81 1.6 SSE 19 22 10 12 1013.5 1013.1 0.0
16/05:00am 13.1 9.5 9.7 80 1.7 SSE 19 22 10 12 1013.6 1013.2 0.0
16/04:30am 13.2 9.5 10.0 81 1.7 SSE 20 26 11 14 1013.5 1013.1 0.0
16/04:00am 13.1 9.3 9.9 81 1.7 SSE 20 24 11 13 1013.4 1013.0 0.0
16/03:30am 13.3 9.8 10.1 81 1.7 SSE 19 26 10 14 1013.4 1013.0 0.0
16/03:00am 13.3 9.6 10.1 81 1.7 SSE 20 24 11 13 1013.6 1013.2 0.0
16/02:30am 13.3 9.5 9.9 80 1.8 SSE 20 26 11 14 1013.6 1013.2 0.0
16/02:00am 13.2 9.5 9.6 79 1.8 SSE 19 22 10 12 1013.6 1013.2 0.0
16/01:30am 13.5 10.2 9.7 78 2.0 SSE 17 20 9 11 1013.6 1013.2 0.0
16/01:00am 13.9 10.1 9.9 77 2.1 SSE 20 28 11 15 1013.8 1013.4 0.0
16/12:30am 14.1 9.9 9.7 75 2.3 S 22 28 12 15 1013.9 1013.5 0.0
16/12:00am 14.1 9.9 9.7 75 2.3 S 22 28 12 15 1014.1 1013.7 0.0
 
Date/Time
WST
Temp
°C
App
Temp
°C
Dew
Point
°C
Rel
Hum
%
Delta-T
°C
Wind Press
QNH
hPa
Press
MSL
hPa
Rain since
9am
mm
Dir  Spd
km/h
Gust
km/h
Spd
kts
Gust
kts
15/11:30pm 14.2 9.6 9.6 74 2.4 S 24 30 13 16 1014.0 1013.6 0.0
15/11:00pm 14.4 10.7 9.4 72 2.6 S 19 24 10 13 1014.1 1013.7 0.0
15/10:30pm 14.5 10.6 9.3 71 2.7 S 20 28 11 15 1014.1 1013.7 0.0
15/10:00pm 14.7 11.3 9.3 70 2.8 S 17 26 9 14 1014.3 1013.9 0.0
15/09:30pm 15.0 11.1 9.4 69 2.9 S 20 32 11 17 1014.0 1013.6 0.0
15/09:00pm 15.2 11.5 9.3 68 3.0 S 19 28 10 15 1013.8 1013.4 0.0
15/08:30pm 15.6 11.3 9.5 67 3.2 S 22 30 12 16 1013.5 1013.1 0.0
15/08:00pm 15.9 11.9 10.4 70 2.9 S 22 35 12 19 1013.2 1012.8 0.0
15/07:30pm 16.6 9.5 10.9 69 3.1 SSW 39 52 21 28 1012.8 1012.4 0.0
15/07:00pm 17.2 10.1 10.8 66 3.5 SSW 39 54 21 29 1012.3 1011.9 0.0
15/06:34pm 18.2 11.3 11.5 65 3.7 SSW 39 57 21 31 1012.2 1011.8 0.0
15/06:30pm 18.1 10.3 11.2 64 3.8 SSW 43 57 23 31 1012.3 1011.9 0.0
15/06:00pm 18.6 10.5 10.7 60 4.3 SSW 44 63 24 34 1012.1 1011.7 0.0
15/05:35pm 19.3 11.3 11.1 59 4.5 SSW 44 63 24 34 1012.1 1011.7 0.0
15/05:30pm 19.2 10.7 10.5 57 4.7 SSW 46 63 25 34 1012.1 1011.7 0.0
15/05:07pm 19.7 11.2 10.7 56 4.9 SSW 46 67 25 36 1011.9 1011.5 0.0
15/05:00pm 19.4 10.5 10.7 57 4.7 SSW 48 63 26 34 1011.9 1011.5 0.0
15/04:30pm 20.1 11.3 10.8 55 5.1 SSW 48 67 26 36 1012.0 1011.6 0.0
15/04:02pm 20.0 11.1 10.7 55 5.1 SSW 48 69 26 37 1012.0 1011.6 0.0
15/04:00pm 20.1 11.3 11.1 56 5.0 SSW 48 65 26 35 1012.0 1011.6 0.0
15/03:39pm 20.2 11.7 10.6 54 5.2 SSW 46 65 25 35 1012.1 1011.7 0.0
15/03:30pm 20.8 12.5 11.4 55 5.2 SSW 46 59 25 32 1012.3 1011.9 0.0
15/03:05pm 21.0 13.1 11.6 55 5.2 SSW 44 65 24 35 1012.4 1012.0 0.0
15/03:00pm 21.1 13.0 12.0 56 5.1 SSW 46 61 25 33 1012.5 1012.1 0.0
15/02:30pm 21.5 14.2 11.5 53 5.6 SSW 41 59 22 32 1012.7 1012.3 0.0
15/02:11pm 20.9 13.1 11.3 54 5.3 SSW 43 61 23 33 1012.8 1012.4 0.0
15/02:00pm 21.2 13.2 11.0 52 5.6 SSW 44 61 24 33 1012.9 1012.5 0.0
15/01:30pm 21.6 14.4 10.7 50 6.0 SSW 39 54 21 29 1013.3 1012.9 0.0
15/01:00pm 22.4 16.6 11.5 50 6.1 SSW 33 48 18 26 1013.6 1013.2 0.0
15/12:30pm 21.8 15.5 10.9 50 6.0 SSW 35 46 19 25 1014.1 1013.7 0.0
15/12:00pm 21.9 16.2 11.3 51 5.9 SSW 32 43 17 23 1014.2 1013.8 0.0
15/11:30am 22.0 16.5 11.7 52 5.8 SSW 32 44 17 24 1014.4 1014.0 0.0
15/11:00am 21.4 16.1 11.1 52 5.7 SSW 30 41 16 22 1014.6 1014.2 0.0
15/10:30am 20.6 15.9 10.7 53 5.4 SSW 26 35 14 19 1014.9 1014.5 0.0
15/10:00am 22.0 19.0 10.5 48 6.3 SE 17 24 9 13 1015.2 1014.9 0.0
15/09:30am 20.8 17.8 10.6 52 5.6 SSE 17 20 9 11 1015.4 1015.1 0.0
15/09:00am 20.1 16.8 9.7 51 5.6 SE 17 26 9 14 1015.5 1015.2 0.0
15/08:30am 20.6 17.0 10.4 52 5.6 SE 20 30 11 16 1015.6 1015.3 0.0
15/08:00am 19.7 16.2 10.9 57 4.8 SE 20 28 11 15 1015.8 1015.5 0.0
15/07:30am 18.2 14.7 10.8 62 4.0 SE 20 30 11 16 1015.8 1015.5 0.0
15/07:00am 16.6 12.4 9.8 64 3.6 SSE 22 32 12 17 1015.6 1015.3 0.0
15/06:30am 15.3 10.7 9.7 69 2.9 SSE 24 35 13 19 1015.3 1015.0 0.0
15/06:00am 13.8 9.5 9.5 75 2.2 SSE 22 30 12 16 1015.0 1014.6 0.0
15/05:30am 13.2 8.9 9.3 77 2.0 SSE 22 28 12 15 1014.8 1014.4 0.0
15/05:00am 13.1 8.8 9.2 77 2.0 S 22 28 12 15 1014.6 1014.2 0.0
15/04:30am 12.8 9.0 9.1 78 1.9 S 19 28 10 15 1014.6 1014.2 0.0
15/04:00am 12.8 9.0 9.1 78 1.9 S 19 24 10 13 1014.4 1014.0 0.0
15/03:30am 12.8 9.0 9.1 78 1.9 S 19 24 10 13 1014.4 1014.0 0.0
15/03:00am 12.5 8.6 8.8 78 1.9 S 19 22 10 12 1014.6 1014.2 0.0
15/02:30am 12.4 8.8 8.5 77 1.9 S 17 20 9 11 1014.8 1014.4 0.0
15/02:00am 12.6 8.5 8.7 77 2.0 SSW 20 26 11 14 1015.0 1014.6 0.0
15/01:30am 12.8 8.9 8.5 75 2.2 S 19 22 10 12 1015.2 1014.9 0.0
15/01:00am 13.2 9.2 8.3 72 2.4 S 19 24 10 13 1015.3 1015.0 0.0
15/12:30am 13.5 9.5 8.4 71 2.6 S 19 24 10 13 1015.5 1015.2 0.0
15/12:00am 13.8 9.7 8.6 71 2.6 S 20 28 11 15 1015.7 1015.4 0.0
 
Date/Time
WST
Temp
°C
App
Temp
°C
Dew
Point
°C
Rel
Hum
%
Delta-T
°C
Wind Press
QNH
hPa
Press
MSL
hPa
Rain since
9am
mm
Dir  Spd
km/h
Gust
km/h
Spd
kts
Gust
kts
14/11:30pm 14.0 9.5 8.6 70 2.7 S 22 35 12 19 1015.6 1015.3 0.0
14/11:00pm 14.3 9.1 8.9 70 2.7 S 26 43 14 23 1015.7 1015.4 0.0
14/10:30pm 14.4 10.0 8.8 69 2.9 S 22 33 12 18 1015.8 1015.5 0.0
14/10:00pm 14.7 8.8 8.9 68 3.0 S 30 44 16 24 1015.5 1015.2 0.0
14/09:30pm 14.9 9.0 9.1 68 3.0 S 30 44 16 24 1015.7 1015.4 0.0
14/09:00pm 15.1 9.6 9.2 68 3.0 S 28 43 15 23 1015.6 1015.3 0.0
14/08:30pm 15.4 9.5 9.1 66 3.2 S 30 46 16 25 1015.3 1015.0 0.0
14/08:00pm 15.9 9.6 9.1 64 3.5 S 32 52 17 28 1014.8 1014.4 0.0
14/07:58pm 15.9 9.6 9.1 64 3.5 S 32 52 17 28 1014.7 1014.3 0.0
14/07:30pm 16.7 10.9 9.6 63 3.7 S 30 44 16 24 1014.3 1013.9 0.0
14/07:01pm 17.2 10.0 10.6 65 3.5 SSW 39 57 21 31 1013.8 1013.4 0.0
14/07:00pm 17.3 9.9 11.1 67 3.4 SSW 41 57 22 31 1013.8 1013.4 0.0
14/06:30pm 18.1 10.1 11.2 64 3.8 SSW 44 59 24 32 1013.4 1013.0 0.0
14/06:02pm 18.8 10.4 10.9 60 4.3 SSW 46 65 25 35 1013.0 1012.6 0.0
14/06:00pm 18.9 10.5 11.0 60 4.3 SSW 46 61 25 33 1013.0 1012.6 0.0
14/05:33pm 19.3 10.5 11.1 59 4.5 SSW 48 67 26 36 1012.8 1012.4 0.0
14/05:30pm 19.3 10.2 11.1 59 4.5 SSW 50 67 27 36 1012.7 1012.3 0.0
14/05:00pm 19.7 10.6 11.2 58 4.7 SSW 50 69 27 37 1012.6 1012.2 0.0
14/04:34pm 20.6 11.8 12.3 59 4.7 SSW 50 69 27 37 1012.8 1012.4 0.0
14/04:30pm 20.2 10.9 11.7 58 4.7 SSW 52 69 28 37 1012.7 1012.3 0.0
14/04:03pm 20.6 12.0 11.8 57 4.9 SSW 48 69 26 37 1012.9 1012.5 0.0
14/04:00pm 20.5 11.5 11.7 57 4.9 SSW 50 65 27 35 1012.8 1012.4 0.0
14/03:42pm 20.5 12.1 10.9 54 5.3 SSW 46 65 25 35 1012.9 1012.5 0.0
14/03:30pm 21.3 12.5 11.1 52 5.7 SSW 48 63 26 34 1012.8 1012.4 0.0
14/03:09pm 21.4 13.3 10.9 51 5.8 SSW 44 65 24 35 1013.0 1012.6 0.0
14/03:00pm 21.3 13.3 11.1 52 5.7 SSW 44 61 24 33 1013.1 1012.7 0.0
14/02:42pm 21.7 13.9 11.7 53 5.6 SSW 44 65 24 35 1013.2 1012.8 0.0
14/02:30pm 21.2 13.5 11.5 54 5.4 SSW 43 59 23 32 1013.3 1012.9 0.0
14/02:22pm 21.5 14.6 11.5 53 5.6 SSW 39 57 21 31 1013.4 1013.0 0.0
14/02:00pm 21.8 14.6 11.8 53 5.6 SSW 41 56 22 30 1013.6 1013.2 0.0
14/01:30pm 22.0 15.0 11.4 51 5.9 SSW 39 56 21 30 1013.9 1013.5 0.0
14/01:00pm 21.6 14.2 11.3 52 5.7 SSW 41 59 22 32 1014.3 1013.9 0.0
14/12:30pm 22.2 15.7 11.6 51 6.0 SSW 37 52 20 28 1014.7 1014.3 0.0
14/12:00pm 22.1 16.6 12.6 55 5.4 SSW 33 46 18 25 1015.0 1014.6 0.0
14/11:30am 22.2 17.1 11.9 52 5.8 SSW 30 43 16 23 1015.3 1015.0 0.0
14/11:00am 23.4 19.8 10.5 44 7.1 SSW 20 33 11 18 1015.4 1015.1 0.0
14/10:30am 24.3 20.2 8.7 37 8.4 SE 20 32 11 17 1015.7 1015.4 0.0
14/10:00am 22.8 18.4 8.9 41 7.5 SSE 22 37 12 20 1016.0 1015.7 0.0
14/09:30am 21.7 16.9 8.9 44 6.8 SE 24 35 13 19 1016.2 1015.9 0.0
14/09:00am 21.1 16.5 9.7 48 6.1 SSE 24 39 13 21 1016.5 1016.2 0.0
14/08:30am 19.4 13.4 8.7 50 5.6 SE 30 41 16 22 1016.7 1016.4 0.0
14/08:00am 18.6 13.5 9.1 54 5.0 SSE 26 35 14 19 1016.9 1016.6 0.0
14/07:30am 17.7 11.5 9.3 58 4.4 SSE 32 44 17 24 1016.9 1016.6 0.0
14/07:00am 16.5 11.4 9.2 62 3.8 SSE 26 37 14 20 1017.0 1016.7 0.0
14/06:30am 14.8 10.0 9.0 68 3.0 SSE 24 33 13 18 1017.0 1016.7 0.0
14/06:00am 14.0 9.2 9.0 72 2.5 S 24 35 13 19 1016.8 1016.5 0.0
14/05:30am 13.7 9.4 9.4 75 2.2 S 22 32 12 17 1016.8 1016.5 0.0
14/05:00am 13.5 8.8 9.4 76 2.1 SSE 24 30 13 16 1016.7 1016.4 0.0
14/04:30am 13.1 9.2 9.4 78 1.9 SSE 20 28 11 15 1016.5 1016.2 0.0
14/04:00am 12.9 9.2 9.5 80 1.7 S 19 26 10 14 1016.3 1016.0 0.0
14/03:30am 13.0 8.8 9.8 81 1.6 SSE 22 30 12 16 1016.1 1015.8 0.0
14/03:00am 12.8 8.9 9.6 81 1.6 SSE 20 26 11 14 1016.4 1016.1 0.0
14/02:30am 12.9 9.3 9.7 81 1.6 SSE 19 26 10 14 1016.5 1016.2 0.0
14/02:00am 13.0 9.4 10.0 82 1.5 S 19 24 10 13 1016.7 1016.4 0.0
14/01:30am 13.1 9.9 10.1 82 1.6 S 17 22 9 12 1016.9 1016.6 0.0
14/01:00am 13.4 10.0 10.4 82 1.6 S 19 24 10 13 1016.9 1016.6 0.0
14/12:30am 13.7 10.7 10.5 81 1.7 S 17 19 9 10 1017.1 1016.8 0.0
14/12:00am 14.2 11.2 10.8 80 1.8 S 17 20 9 11 1017.2 1016.9 0.0
 
Date/Time
WST
Temp
°C
App
Temp
°C
Dew
Point
°C
Rel
Hum
%
Delta-T
°C
Wind Press
QNH
hPa
Press
MSL
hPa
Rain since
9am
mm
Dir  Spd
km/h
Gust
km/h
Spd
kts
Gust
kts
13/11:30pm 14.5 11.3 11.1 80 1.8 S 19 26 10 14 1017.3 1017.0 0.0
13/11:00pm 14.7 11.8 11.1 79 1.9 S 17 22 9 12 1017.4 1017.1 0.0
13/10:30pm 15.3 11.6 11.5 78 2.1 S 22 30 12 16 1017.3 1017.0 0.0
13/10:00pm 15.5 11.8 11.5 77 2.2 S 22 30 12 16 1017.5 1017.2 0.0
13/09:30pm 15.9 12.3 11.9 77 2.2 S 22 30 12 16 1017.4 1017.1 0.0
13/09:00pm 16.5 12.0 12.5 77 2.2 S 28 35 15 19 1017.1 1016.8 0.0
13/08:30pm 17.0 14.0 12.5 75 2.5 S 20 32 11 17 1017.1 1016.8 0.0
13/08:00pm 17.6 15.2 12.5 72 2.8 SSE 17 22 9 12 1017.1 1016.8 0.0
13/07:30pm 18.5 14.9 12.9 70 3.2 SSE 24 35 13 19 1016.5 1016.2 0.0
13/07:00pm 19.8 16.3 13.5 67 3.6 S 24 32 13 17 1016.2 1015.9 0.0
13/06:30pm 20.4 16.7 15.0 71 3.2 SSW 28 39 15 21 1015.8 1015.5 0.0
13/06:00pm 20.8 16.5 15.4 71 3.2 SSW 32 46 17 25 1015.4 1015.1 0.0
13/05:30pm 21.2 16.3 15.3 69 3.5 SSW 35 50 19 27 1015.1 1014.8 0.0
13/05:00pm 21.5 15.9 15.6 69 3.5 SSW 39 50 21 27 1014.9 1014.5 0.0
13/04:30pm 21.6 15.7 15.7 69 3.5 SSW 41 59 22 32 1014.6 1014.2 0.0
13/04:10pm 22.5 16.7 16.1 67 3.9 SSW 41 59 22 32 1014.6 1014.2 0.0
13/04:00pm 22.2 16.4 16.0 68 3.8 SSW 41 57 22 31 1014.6 1014.2 0.0
13/03:54pm 22.2 16.7 15.8 67 3.9 SSW 39 57 21 31 1014.6 1014.2 0.0
13/03:30pm 22.5 17.1 16.1 67 3.9 SSW 39 56 21 30 1014.7 1014.3 0.0
13/03:00pm 22.2 16.9 16.2 69 3.6 SSW 39 50 21 27 1014.7 1014.3 0.0
13/02:30pm 22.7 17.9 16.5 68 3.8 SSW 37 50 20 27 1014.9 1014.5 0.0
13/02:00pm 23.3 18.2 16.8 67 4.0 SSW 39 50 21 27 1014.7 1014.3 0.0
13/01:30pm 24.0 20.3 17.5 67 4.1 SSW 33 48 18 26 1014.7 1014.3 0.0
13/01:00pm 23.4 19.0 16.7 66 4.1 SSW 35 50 19 27 1014.7 1014.3 0.0
13/12:30pm 23.8 20.0 16.8 65 4.3 SSW 32 43 17 23 1014.7 1014.3 0.0
13/12:00pm 23.9 20.5 16.7 64 4.4 SSW 30 43 16 23 1014.8 1014.4 0.0
13/11:30am 23.9 20.3 17.2 66 4.2 SSW 32 44 17 24 1014.8 1014.4 0.0
13/11:00am 23.5 19.0 16.5 65 4.3 SSW 35 50 19 27 1014.8 1014.4 0.0
13/10:42am 23.3 19.1 16.1 64 4.4 SSW 33 54 18 29 1014.6 1014.2 0.0
13/10:30am 22.7 18.5 16.3 67 3.9 SSW 33 48 18 26 1014.6 1014.2 0.0
13/10:00am 22.7 19.1 16.3 67 3.9 SSW 30 39 16 21 1014.7 1014.3 0.0

Other Formats:

Comma delimited format used in spreadsheet applications
http://www.bom.gov.au/fwo/IDW60801/IDW60801.94600.axf

JavaScript Object Notation format (JSON) in row-major order
http://www.bom.gov.au/fwo/IDW60801/IDW60801.94600.json